createdAt,value
2018-06-18T00:00:29.600Z,98960.88
2018-06-18T00:01:00.840Z,98956.45
2018-06-18T00:01:32.016Z,98962.48
2018-06-18T00:02:03.237Z,98959.47
2018-06-18T00:02:34.465Z,98956.33
2018-06-18T00:03:05.723Z,98957.53
2018-06-18T00:03:36.919Z,98953.48
2018-06-18T00:04:08.137Z,98957.53
2018-06-18T00:04:39.312Z,98954.64
2018-06-18T00:05:10.491Z,98952.86
2018-06-18T00:05:41.678Z,98952.48
2018-06-18T00:06:12.918Z,98953.44
2018-06-18T00:06:44.095Z,98950.41
2018-06-18T00:07:15.280Z,98950.22
2018-06-18T00:07:46.502Z,98953.69
2018-06-18T00:08:17.736Z,98947.33
2018-06-18T00:08:48.909Z,98943.86
2018-06-18T00:09:20.120Z,98945.18
2018-06-18T00:09:51.296Z,98946.96
2018-06-18T00:10:22.525Z,98949.40
2018-06-18T00:10:53.765Z,98945.06
2018-06-18T00:11:25.900Z,98946.88
2018-06-18T00:11:57.179Z,98946.96
2018-06-18T00:12:28.383Z,98934.72
2018-06-18T00:12:59.592Z,98941.91
2018-06-18T00:13:30.824Z,98939.72
2018-06-18T00:14:02.006Z,98944.55
2018-06-18T00:14:33.182Z,98940.59
2018-06-18T00:15:04.359Z,98940.59
2018-06-18T00:15:35.598Z,98934.80
2018-06-18T00:16:06.799Z,98931.84
2018-06-18T00:16:38.014Z,98943.16
2018-06-18T00:17:09.278Z,98936.89
2018-06-18T00:17:40.464Z,98941.48
2018-06-18T00:18:11.644Z,98937.52
2018-06-18T00:18:42.871Z,98935.73
2018-06-18T00:19:14.118Z,98935.73
2018-06-18T00:19:45.328Z,98936.19
2018-06-18T00:20:16.509Z,98935.94
2018-06-18T00:20:47.737Z,98935.23
2018-06-18T00:21:18.956Z,98935.31
2018-06-18T00:21:50.137Z,98936.17
2018-06-18T00:22:21.408Z,98938.21
2018-06-18T00:22:52.628Z,98932.58
2018-06-18T00:23:23.815Z,98937.12
2018-06-18T00:23:54.997Z,98934.60
2018-06-18T00:24:26.177Z,98943.86
2018-06-18T00:24:57.414Z,98932.78
2018-06-18T00:25:28.589Z,98934.72
2018-06-18T00:25:59.817Z,98939.14
2018-06-18T00:26:31.032Z,98935.30
2018-06-18T00:27:02.206Z,98945.64
2018-06-18T00:27:33.438Z,98942.91
2018-06-18T00:28:04.619Z,98938.08
2018-06-18T00:28:35.806Z,98935.69
2018-06-18T00:29:06.976Z,98938.82
2018-06-18T00:29:38.152Z,98935.80
2018-06-18T00:30:09.679Z,98935.80
2018-06-18T00:30:40.876Z,98937.88
2018-06-18T00:31:12.108Z,98935.56
2018-06-18T00:31:43.338Z,98935.11
2018-06-18T00:32:14.581Z,98935.94
2018-06-18T00:32:45.799Z,98929.70
2018-06-18T00:33:17.029Z,98934.17
2018-06-18T00:33:48.210Z,98930.95
2018-06-18T00:34:19.434Z,98934.67
2018-06-18T00:34:50.681Z,98931.57
2018-06-18T00:35:21.875Z,98929.18
2018-06-18T00:35:53.110Z,98934.23
2018-06-18T00:36:24.344Z,98931.49
2018-06-18T00:36:55.569Z,98931.58
2018-06-18T00:37:26.748Z,98930.62
2018-06-18T00:37:57.989Z,98929.55
2018-06-18T00:38:29.229Z,98933.02
2018-06-18T00:39:00.416Z,98936.53
2018-06-18T00:39:31.589Z,98932.91
2018-06-18T00:40:02.809Z,98936.66
2018-06-18T00:40:33.980Z,98934.02
2018-06-18T00:41:05.213Z,98935.59
2018-06-18T00:41:36.497Z,98932.25
2018-06-18T00:42:07.684Z,98939.31
2018-06-18T00:42:38.931Z,98937.53
2018-06-18T00:43:10.131Z,98936.67
2018-06-18T00:43:41.372Z,98935.84
2018-06-18T00:44:12.559Z,98930.67
2018-06-18T00:44:43.845Z,98936.42
2018-06-18T00:45:15.090Z,98936.05
2018-06-18T00:45:46.272Z,98937.75
2018-06-18T00:46:17.541Z,98939.81
2018-06-18T00:46:48.724Z,98936.21
2018-06-18T00:47:19.900Z,98936.67
2018-06-18T00:47:51.109Z,98934.52
2018-06-18T00:48:22.327Z,98936.67
2018-06-18T00:48:53.548Z,98936.58
2018-06-18T00:49:24.810Z,98933.94
2018-06-18T00:49:56.038Z,98935.27
2018-06-18T00:50:27.300Z,98932.70
2018-06-18T00:50:58.546Z,98928.40
2018-06-18T00:51:29.837Z,98931.05
2018-06-18T00:52:01.017Z,98928.86
2018-06-18T00:52:32.199Z,98925.26
2018-06-18T00:53:03.385Z,98928.86
2018-06-18T00:53:34.560Z,98923.94
2018-06-18T00:54:05.799Z,98928.27
2018-06-18T00:54:37.052Z,98925.63
2018-06-18T00:55:08.248Z,98926.95
2018-06-18T00:55:39.435Z,98927.66
2018-06-18T00:56:10.654Z,98927.33
2018-06-18T00:56:42.034Z,98930.68
2018-06-18T00:57:13.231Z,98926.50
2018-06-18T00:57:44.516Z,98928.53
2018-06-18T00:58:15.708Z,98924.81
2018-06-18T00:58:46.881Z,98931.84
2018-06-18T00:59:18.057Z,98928.23
2018-06-18T00:59:49.292Z,98928.48
2018-06-18T01:00:20.513Z,98930.64
2018-06-18T01:00:51.740Z,98925.13
2018-06-18T01:01:23.024Z,98920.05
2018-06-18T01:01:54.256Z,98925.34
2018-06-18T01:02:25.489Z,98925.59
2018-06-18T01:02:56.681Z,98927.98
2018-06-18T01:03:27.953Z,98927.74
2018-06-18T01:03:59.140Z,98925.55
2018-06-18T01:04:30.370Z,98927.74
2018-06-18T01:05:01.579Z,98934.45
2018-06-18T01:05:32.813Z,98927.95
2018-06-18T01:06:04.013Z,98931.17
2018-06-18T01:06:35.197Z,98930.72
2018-06-18T01:07:06.388Z,98936.84
2018-06-18T01:07:37.608Z,98933.62
2018-06-18T01:08:08.784Z,98937.80
2018-06-18T01:08:39.972Z,98937.58
2018-06-18T01:09:11.152Z,98941.92
2018-06-18T01:09:42.376Z,98945.28
2018-06-18T01:10:13.553Z,98939.65
2018-06-18T01:10:44.741Z,98939.98
2018-06-18T01:11:15.973Z,98892.36
2018-06-18T01:11:47.212Z,98941.56
2018-06-18T01:12:18.406Z,98943.25
2018-06-18T01:12:49.659Z,98943.25
2018-06-18T01:13:20.904Z,98942.88
2018-06-18T01:13:52.095Z,98946.60
2018-06-18T01:14:23.365Z,98941.92
2018-06-18T01:14:54.637Z,98939.28
2018-06-18T01:15:25.841Z,98936.63
2018-06-18T01:15:57.016Z,98942.75
2018-06-18T01:16:28.245Z,98944.94
2018-06-18T01:16:59.430Z,98940.81
2018-06-18T01:17:30.664Z,98936.47
2018-06-18T01:18:01.907Z,98940.19
2018-06-18T01:18:33.100Z,98938.98
2018-06-18T01:19:04.289Z,98943.20
2018-06-18T01:19:35.468Z,98939.06
2018-06-18T01:20:06.640Z,98943.28
2018-06-18T01:20:37.858Z,98944.23
2018-06-18T01:21:09.054Z,98939.89
2018-06-18T01:21:40.299Z,98942.53
2018-06-18T01:22:11.528Z,98942.41
2018-06-18T01:22:42.712Z,98941.00
2018-06-18T01:23:13.996Z,98942.66
2018-06-18T01:23:45.221Z,98943.04
2018-06-18T01:24:16.397Z,98939.56
2018-06-18T01:24:47.579Z,98943.91
2018-06-18T01:25:18.780Z,98941.26
2018-06-18T01:25:54.283Z,98941.71
2018-06-18T01:27:04.174Z,98944.85
2018-06-18T01:27:35.393Z,98940.02
2018-06-18T01:28:06.601Z,98939.31
2018-06-18T01:28:37.820Z,98942.33
2018-06-18T01:29:09.053Z,98938.70
2018-06-18T01:29:40.252Z,98946.63
2018-06-18T01:30:11.531Z,98944.59
2018-06-18T01:30:42.762Z,98938.94
2018-06-18T01:31:13.940Z,98939.64
2018-06-18T01:31:45.124Z,98939.27
2018-06-18T01:32:16.296Z,98934.67
2018-06-18T01:32:47.498Z,98935.03
2018-06-18T01:33:18.724Z,98938.88
2018-06-18T01:33:49.956Z,98936.23
2018-06-18T01:34:21.133Z,98938.75
2018-06-18T01:34:52.300Z,98940.28
2018-06-18T01:35:23.563Z,98939.91
2018-06-18T01:35:54.745Z,98938.70
2018-06-18T01:36:25.926Z,98941.84
2018-06-18T01:36:57.163Z,98940.85
2018-06-18T01:37:28.420Z,98945.89
2018-06-18T01:37:59.720Z,98940.72
2018-06-18T01:38:30.889Z,98941.58
2018-06-18T01:39:02.198Z,98947.33
2018-06-18T01:39:33.442Z,98942.42
2018-06-18T01:40:04.633Z,98946.88
2018-06-18T01:40:35.893Z,98948.20
2018-06-18T01:41:07.098Z,98943.36
2018-06-18T01:41:38.314Z,98948.28
2018-06-18T01:42:09.495Z,98945.64
2018-06-18T01:42:40.729Z,98944.81
2018-06-18T01:43:11.924Z,98945.88
2018-06-18T01:43:43.096Z,98946.33
2018-06-18T01:44:14.275Z,98942.86
2018-06-18T01:44:45.509Z,98945.50
2018-06-18T01:45:16.789Z,98941.91
2018-06-18T01:45:48.025Z,98947.57
2018-06-18T01:46:19.200Z,98941.67
2018-06-18T01:46:50.430Z,98944.81
2018-06-18T01:47:21.714Z,98942.05
2018-06-18T01:47:52.968Z,98941.67
2018-06-18T01:48:24.209Z,98946.25
2018-06-18T01:48:55.466Z,98941.16
2018-06-18T01:49:26.700Z,98940.21
2018-06-18T01:49:57.881Z,98938.89
2018-06-18T01:50:29.058Z,98938.06
2018-06-18T01:51:00.239Z,98938.14
2018-06-18T01:51:31.415Z,98940.08
2018-06-18T01:52:02.592Z,98942.60
2018-06-18T01:52:33.978Z,98940.45
2018-06-18T01:53:05.220Z,98938.64
2018-06-18T01:53:36.404Z,98939.84
2018-06-18T01:54:07.582Z,98940.79
2018-06-18T01:54:38.817Z,98939.84
2018-06-18T01:55:10.032Z,98943.23
2018-06-18T01:55:41.200Z,98937.56
2018-06-18T01:56:12.385Z,98941.42
2018-06-18T01:56:43.606Z,98936.50
2018-06-18T01:57:14.829Z,98943.60
2018-06-18T01:57:46.011Z,98946.62
2018-06-18T01:58:17.244Z,98946.96
2018-06-18T01:58:48.474Z,98941.09
2018-06-18T01:59:19.707Z,98943.16
2018-06-18T01:59:50.944Z,98943.50
2018-06-18T02:00:22.132Z,98939.91
2018-06-18T02:00:53.321Z,98941.84
2018-06-18T02:01:24.549Z,98940.14
2018-06-18T02:01:55.764Z,98936.75
2018-06-18T02:02:26.962Z,98937.50
2018-06-18T02:02:58.193Z,98945.06
2018-06-18T02:03:29.421Z,98937.88
2018-06-18T02:04:00.600Z,98940.07
2018-06-18T02:04:31.802Z,98940.41
2018-06-18T02:05:02.977Z,98935.87
2018-06-18T02:05:34.162Z,98941.98
2018-06-18T02:06:05.433Z,98942.97
2018-06-18T02:06:36.613Z,98945.95
2018-06-18T02:07:07.800Z,98943.80
2018-06-18T02:07:39.030Z,98948.72
2018-06-18T02:08:10.352Z,98945.82
2018-06-18T02:08:41.545Z,98942.72
2018-06-18T02:09:12.784Z,98947.63
2018-06-18T02:09:44.035Z,98947.27
2018-06-18T02:10:15.219Z,98947.38
2018-06-18T02:10:46.441Z,98945.89
2018-06-18T02:11:17.701Z,98943.16
2018-06-18T02:11:48.888Z,98946.52
2018-06-18T02:12:20.068Z,98938.12
2018-06-18T02:12:51.293Z,98938.50
2018-06-18T02:13:22.564Z,98941.72
2018-06-18T02:13:53.801Z,98941.23
2018-06-18T02:14:24.980Z,98942.55
2018-06-18T02:14:56.187Z,98940.40
2018-06-18T02:15:27.374Z,98938.70
2018-06-18T02:15:58.610Z,98942.30
2018-06-18T02:16:29.796Z,98943.36
2018-06-18T02:17:01.039Z,98946.01
2018-06-18T02:17:32.232Z,98940.27
2018-06-18T02:18:03.461Z,98942.42
2018-06-18T02:18:34.704Z,98944.48
2018-06-18T02:19:05.885Z,98942.79
2018-06-18T02:19:37.056Z,98944.82
2018-06-18T02:20:08.232Z,98943.05
2018-06-18T02:20:39.408Z,98945.20
2018-06-18T02:21:10.589Z,98939.81
2018-06-18T02:21:41.816Z,98944.24
2018-06-18T02:22:13.056Z,98941.23
2018-06-18T02:22:44.294Z,98940.02
2018-06-18T02:23:15.503Z,98948.45
2018-06-18T02:23:46.724Z,98940.60
2018-06-18T02:24:17.953Z,98943.48
2018-06-18T02:24:49.143Z,98940.47
2018-06-18T02:25:20.320Z,98938.89
2018-06-18T02:25:51.520Z,98946.57
2018-06-18T02:26:22.693Z,98944.50
2018-06-18T02:26:53.892Z,98945.83
2018-06-18T02:27:25.134Z,98943.67
2018-06-18T02:27:56.380Z,98941.41
2018-06-18T02:28:27.585Z,98943.18
2018-06-18T02:28:58.807Z,98940.53
2018-06-18T02:29:29.973Z,98938.64
2018-06-18T02:30:01.149Z,98944.75
2018-06-18T02:30:32.415Z,98940.45
2018-06-18T02:31:03.601Z,98944.42
2018-06-18T02:31:34.774Z,98941.03
2018-06-18T02:32:05.963Z,98938.02
2018-06-18T02:32:37.195Z,98937.27
2018-06-18T02:33:08.376Z,98946.75
2018-06-18T02:33:39.620Z,98940.72
2018-06-18T02:34:10.853Z,98939.52
2018-06-18T02:34:42.032Z,98938.69
2018-06-18T02:35:13.273Z,98939.27
2018-06-18T02:35:44.457Z,98940.17
2018-06-18T02:36:15.644Z,98940.58
2018-06-18T02:36:46.897Z,98934.80
2018-06-18T02:37:18.084Z,98940.01
2018-06-18T02:37:49.278Z,98937.45
2018-06-18T02:38:20.469Z,98941.41
2018-06-18T02:38:51.654Z,98937.08
2018-06-18T02:39:22.937Z,98938.14
2018-06-18T02:39:54.206Z,98937.77
2018-06-18T02:40:25.480Z,98937.77
2018-06-18T02:40:56.754Z,98933.05
2018-06-18T02:41:27.933Z,98939.30
2018-06-18T02:41:59.108Z,98939.30
2018-06-18T02:42:30.280Z,98938.22
2018-06-18T02:43:01.508Z,98941.13
2018-06-18T02:43:32.725Z,98938.31
2018-06-18T02:44:03.896Z,98941.33
2018-06-18T02:44:35.074Z,98942.28
2018-06-18T02:45:06.299Z,98940.47
2018-06-18T02:45:37.483Z,98945.87
2018-06-18T02:46:08.673Z,98942.45
2018-06-18T02:46:39.863Z,98948.22
2018-06-18T02:47:11.034Z,98948.72
2018-06-18T02:47:42.213Z,98945.78
2018-06-18T02:48:13.424Z,98952.51
2018-06-18T02:48:44.684Z,98947.83
2018-06-18T02:49:15.862Z,98947.45
2018-06-18T02:49:47.036Z,98951.42
2018-06-18T02:50:18.272Z,98948.77
2018-06-18T02:50:49.458Z,98951.99
2018-06-18T02:51:20.742Z,98952.94
2018-06-18T02:51:51.972Z,98951.05
2018-06-18T02:52:23.161Z,98953.20
2018-06-18T02:52:54.340Z,98954.06
2018-06-18T02:53:25.521Z,98951.30
2018-06-18T02:53:56.781Z,98957.08
2018-06-18T02:54:28.017Z,98955.76
2018-06-18T02:54:59.196Z,98950.81
2018-06-18T02:55:30.369Z,98954.20
2018-06-18T02:56:01.594Z,98954.20
2018-06-18T02:56:32.795Z,98954.95
2018-06-18T02:57:03.964Z,98952.19
2018-06-18T02:57:35.191Z,98956.44
2018-06-18T02:58:06.424Z,98952.08
2018-06-18T02:58:37.596Z,98957.77
2018-06-18T02:59:08.849Z,98951.41
2018-06-18T02:59:40.058Z,98955.27
2018-06-18T03:00:11.233Z,98957.33
2018-06-18T03:00:42.416Z,98957.70
2018-06-18T03:01:13.641Z,98955.77
2018-06-18T03:01:44.821Z,98961.78
2018-06-18T03:02:16.062Z,98956.81
2018-06-18T03:02:47.241Z,98962.19
2018-06-18T03:03:18.477Z,98962.19
2018-06-18T03:03:49.662Z,98958.80
2018-06-18T03:04:20.908Z,98957.59
2018-06-18T03:04:52.081Z,98960.23
2018-06-18T03:05:23.248Z,98959.86
2018-06-18T03:05:54.425Z,98962.13
2018-06-18T03:06:25.614Z,98959.61
2018-06-18T03:06:56.813Z,98955.38
2018-06-18T03:07:27.983Z,98958.03
2018-06-18T03:07:59.216Z,98958.11
2018-06-18T03:08:30.401Z,98956.45
2018-06-18T03:09:01.620Z,98957.85
2018-06-18T03:09:32.885Z,98955.70
2018-06-18T03:10:04.066Z,98961.81
2018-06-18T03:10:35.244Z,98963.74
2018-06-18T03:11:06.408Z,98965.06
2018-06-18T03:11:37.584Z,98967.70
2018-06-18T03:12:08.772Z,98964.45
2018-06-18T03:12:40.021Z,98964.83
2018-06-18T03:13:11.273Z,98965.20
2018-06-18T03:13:42.488Z,98965.47
2018-06-18T03:14:13.663Z,98965.15
2018-06-18T03:14:44.838Z,98964.58
2018-06-18T03:15:16.013Z,98971.52
2018-06-18T03:15:47.182Z,98966.53
2018-06-18T03:16:18.358Z,98969.09
2018-06-18T03:16:49.581Z,98969.09
2018-06-18T03:17:20.779Z,98965.95
2018-06-18T03:17:51.961Z,98967.02
2018-06-18T03:18:23.134Z,98971.06
2018-06-18T03:18:54.352Z,98968.80
2018-06-18T03:19:25.575Z,98965.29
2018-06-18T03:19:56.753Z,98973.13
2018-06-18T03:20:27.969Z,98971.61
2018-06-18T03:20:59.188Z,98969.34
2018-06-18T03:21:30.363Z,98970.92
2018-06-18T03:22:01.563Z,98964.45
2018-06-18T03:22:32.754Z,98968.79
2018-06-18T03:23:04.045Z,98969.16
2018-06-18T03:23:35.230Z,98968.22
2018-06-18T03:24:06.392Z,98971.20
2018-06-18T03:24:37.649Z,98972.64
2018-06-18T03:25:08.841Z,98964.25
2018-06-18T03:25:40.012Z,98966.89
2018-06-18T03:26:11.198Z,98968.47
2018-06-18T03:26:42.370Z,98970.99
2018-06-18T03:27:13.605Z,98966.80
2018-06-18T03:27:44.820Z,98971.64
2018-06-18T03:28:16.013Z,98970.48
2018-06-18T03:28:47.193Z,98971.95
2018-06-18T03:29:20.047Z,98966.91
2018-06-18T03:29:51.389Z,98974.52
2018-06-18T03:30:22.573Z,98964.44
2018-06-18T03:30:53.748Z,98969.49
2018-06-18T03:31:25.000Z,98967.47
2018-06-18T03:31:56.275Z,98968.84
2018-06-18T03:32:27.472Z,98969.92
2018-06-18T03:32:58.692Z,98968.47
2018-06-18T03:33:29.884Z,98972.86
2018-06-18T03:34:01.064Z,98968.19
2018-06-18T03:34:32.253Z,98973.27
2018-06-18T03:35:03.446Z,98975.50
2018-06-18T03:35:34.625Z,98973.84
2018-06-18T03:36:05.854Z,98973.75
2018-06-18T03:36:37.044Z,98970.03
2018-06-18T03:37:08.333Z,98968.70
2018-06-18T03:37:39.538Z,98971.48
2018-06-18T03:38:10.721Z,98974.13
2018-06-18T03:38:41.904Z,98975.17
2018-06-18T03:39:13.084Z,98972.89
2018-06-18T03:39:44.268Z,98982.86
2018-06-18T03:40:15.533Z,98978.64
2018-06-18T03:40:46.715Z,98980.67
2018-06-18T03:41:17.892Z,98980.05
2018-06-18T03:41:49.069Z,98980.14
2018-06-18T03:42:20.365Z,98983.00
2018-06-18T03:42:51.589Z,98983.12
2018-06-18T03:43:22.822Z,98978.06
2018-06-18T03:43:54.053Z,98984.19
2018-06-18T03:44:25.241Z,98986.22
2018-06-18T03:44:56.420Z,98985.59
2018-06-18T03:45:27.600Z,98987.28
2018-06-18T03:45:58.776Z,98982.08
2018-06-18T03:46:30.109Z,98987.12
2018-06-18T03:47:01.387Z,98977.73
2018-06-18T03:47:32.677Z,98985.30
2018-06-18T03:48:03.913Z,98986.36
2018-06-18T03:48:35.100Z,98980.24
2018-06-18T03:49:06.278Z,98982.89
2018-06-18T03:49:37.465Z,98981.56
2018-06-18T03:50:08.648Z,98986.24
2018-06-18T03:50:39.832Z,98977.73
2018-06-18T03:51:11.013Z,98987.36
2018-06-18T03:51:42.188Z,98983.39
2018-06-18T03:52:13.368Z,98981.12
2018-06-18T03:52:44.584Z,98984.09
2018-06-18T03:53:15.801Z,98981.12
2018-06-18T03:53:47.026Z,98982.78
2018-06-18T03:54:18.211Z,98987.48
2018-06-18T03:54:49.399Z,98988.32
2018-06-18T03:55:20.589Z,98986.05
2018-06-18T03:55:51.776Z,98982.33
2018-06-18T03:56:23.007Z,98987.05
2018-06-18T03:56:54.209Z,98986.09
2018-06-18T03:57:25.393Z,98983.07
2018-06-18T03:57:56.598Z,98986.80
2018-06-18T03:58:27.825Z,98985.77
2018-06-18T03:58:59.052Z,98991.39
2018-06-18T03:59:30.276Z,98985.27
2018-06-18T04:00:01.510Z,98982.83
2018-06-18T04:00:32.693Z,98985.47
2018-06-18T04:01:03.871Z,98989.61
2018-06-18T04:01:35.050Z,98984.69
2018-06-18T04:02:06.294Z,98983.12
2018-06-18T04:02:37.491Z,98988.66
2018-06-18T04:03:08.728Z,98985.56
2018-06-18T04:03:39.917Z,98983.62
2018-06-18T04:04:11.129Z,98983.53
2018-06-18T04:04:42.300Z,98984.16
2018-06-18T04:05:13.522Z,98988.13
2018-06-18T04:05:44.749Z,98993.41
2018-06-18T04:06:15.941Z,98960.95
2018-06-18T04:06:47.170Z,98988.13
2018-06-18T04:07:18.420Z,98988.49
2018-06-18T04:07:49.605Z,98990.19
2018-06-18T04:08:20.832Z,98991.51
2018-06-18T04:08:52.072Z,98988.03
2018-06-18T04:09:23.263Z,98997.05
2018-06-18T04:09:54.545Z,98974.69
2018-06-18T04:10:25.737Z,98996.10
2018-06-18T04:10:56.916Z,98994.28
2018-06-18T04:11:28.155Z,98994.28
2018-06-18T04:11:59.392Z,98995.48
2018-06-18T04:12:30.604Z,98998.38
2018-06-18T04:13:01.803Z,98994.53
2018-06-18T04:13:32.980Z,98992.12
2018-06-18T04:14:04.151Z,98998.50
2018-06-18T04:14:35.328Z,98999.62
2018-06-18T04:15:06.516Z,98996.27
2018-06-18T04:15:37.691Z,98999.62
2018-06-18T04:16:08.874Z,98995.06
2018-06-18T04:16:40.052Z,98996.76
2018-06-18T04:17:11.289Z,99007.11
2018-06-18T04:17:42.499Z,98997.96
2018-06-18T04:18:13.673Z,98996.52
2018-06-18T04:18:44.901Z,98998.95
2018-06-18T04:19:16.102Z,98996.05
2018-06-18T04:19:47.342Z,98995.47
2018-06-18T04:20:18.595Z,99003.78
2018-06-18T04:20:49.828Z,98998.86
2018-06-18T04:21:21.057Z,98996.20
2018-06-18T04:21:52.331Z,99006.19
2018-06-18T04:22:23.566Z,99002.00
2018-06-18T04:22:54.748Z,98997.28
2018-06-18T04:23:25.977Z,98998.39
2018-06-18T04:23:57.166Z,99006.46
2018-06-18T04:24:28.346Z,99005.75
2018-06-18T04:24:59.573Z,99003.34
2018-06-18T04:25:30.761Z,99002.73
2018-06-18T04:26:01.972Z,99004.67
2018-06-18T04:26:33.215Z,99005.65
2018-06-18T04:27:04.456Z,99004.20
2018-06-18T04:27:35.713Z,99000.47
2018-06-18T04:28:06.946Z,98999.39
2018-06-18T04:28:38.130Z,98995.06
2018-06-18T04:29:09.367Z,99006.52
2018-06-18T04:29:40.555Z,99005.25
2018-06-18T04:30:11.752Z,99001.88
2018-06-18T04:30:42.989Z,99005.73
2018-06-18T04:31:14.217Z,99007.77
2018-06-18T04:31:45.445Z,99000.08
2018-06-18T04:32:16.627Z,99002.72
2018-06-18T04:32:47.856Z,99002.37
2018-06-18T04:33:19.043Z,99000.91
2018-06-18T04:33:50.225Z,99005.50
2018-06-18T04:34:22.228Z,99008.27
2018-06-18T04:34:53.413Z,99002.48
2018-06-18T04:35:24.595Z,99001.41
2018-06-18T04:35:55.798Z,99006.09
2018-06-18T04:36:26.980Z,99004.17
2018-06-18T04:36:58.209Z,99004.05
2018-06-18T04:37:29.409Z,99007.89
2018-06-18T04:38:00.600Z,99008.26
2018-06-18T04:38:31.781Z,99005.61
2018-06-18T04:39:02.956Z,99008.39
2018-06-18T04:39:34.153Z,99010.44
2018-06-18T04:40:05.385Z,99014.67
2018-06-18T04:40:36.565Z,99004.89
2018-06-18T04:41:07.773Z,99008.64
2018-06-18T04:41:38.948Z,99011.17
2018-06-18T04:42:10.116Z,99006.23
2018-06-18T04:42:41.345Z,99008.63
2018-06-18T04:43:12.556Z,99006.34
2018-06-18T04:43:43.777Z,99009.73
2018-06-18T04:44:14.956Z,99005.13
2018-06-18T04:44:46.175Z,99014.05
2018-06-18T04:45:17.389Z,99005.96
2018-06-18T04:45:48.714Z,99005.61
2018-06-18T04:46:19.901Z,99010.19
2018-06-18T04:46:51.087Z,99008.73
2018-06-18T04:47:22.314Z,99008.60
2018-06-18T04:47:53.540Z,99012.09
2018-06-18T04:48:24.714Z,99008.84
2018-06-18T04:48:55.944Z,99006.91
2018-06-18T04:49:27.131Z,99008.48
2018-06-18T04:49:58.307Z,99006.78
2018-06-18T04:50:29.486Z,99006.42
2018-06-18T04:51:00.704Z,99008.11
2018-06-18T04:51:31.920Z,99007.02
2018-06-18T04:52:03.116Z,99004.59
2018-06-18T04:52:34.344Z,99004.14
2018-06-18T04:53:06.368Z,99005.14
2018-06-18T04:53:37.553Z,99005.23
2018-06-18T04:54:08.726Z,99004.77
2018-06-18T04:54:39.968Z,99006.92
2018-06-18T04:55:11.224Z,99008.25
2018-06-18T04:55:42.409Z,99005.23
2018-06-18T04:56:13.632Z,99002.31
2018-06-18T04:56:44.931Z,99012.93
2018-06-18T04:57:16.101Z,99006.09
2018-06-18T04:57:47.285Z,99009.20
2018-06-18T04:58:18.581Z,99007.06
2018-06-18T04:58:49.811Z,99012.47
2018-06-18T04:59:21.045Z,99004.28
2018-06-18T04:59:52.260Z,99012.57
2018-06-18T05:00:23.465Z,99010.42
2018-06-18T05:00:54.634Z,99007.63
2018-06-18T05:01:25.804Z,99012.91
2018-06-18T05:01:57.013Z,99011.72
2018-06-18T05:02:28.197Z,99020.51
2018-06-18T05:02:59.440Z,99011.05
2018-06-18T05:03:30.625Z,99017.91
2018-06-18T05:04:01.796Z,99014.16
2018-06-18T05:04:33.021Z,99013.14
2018-06-18T05:05:04.248Z,99017.45
2018-06-18T05:05:35.460Z,99020.91
2018-06-18T05:06:06.699Z,99020.90
2018-06-18T05:06:37.878Z,99017.00
2018-06-18T05:07:09.040Z,99019.80
2018-06-18T05:07:40.265Z,99018.77
2018-06-18T05:08:11.489Z,99016.39
2018-06-18T05:08:42.660Z,99017.13
2018-06-18T05:09:13.851Z,99019.31
2018-06-18T05:09:45.021Z,99017.98
2018-06-18T05:10:16.318Z,99017.78
2018-06-18T05:10:47.497Z,99017.63
2018-06-18T05:11:18.673Z,99017.20
2018-06-18T05:11:49.916Z,99017.22
2018-06-18T05:12:21.097Z,99021.45
2018-06-18T05:12:52.282Z,99014.80
2018-06-18T05:13:23.484Z,99017.19
2018-06-18T05:13:54.687Z,99022.16
2018-06-18T05:14:25.864Z,99020.10
2018-06-18T05:14:57.073Z,99019.27
2018-06-18T05:15:28.265Z,99020.88
2018-06-18T05:15:59.521Z,99021.80
2018-06-18T05:16:30.707Z,99017.75
2018-06-18T05:17:01.888Z,99023.08
2018-06-18T05:17:33.072Z,99026.92
2018-06-18T05:18:04.249Z,99023.17
2018-06-18T05:18:35.428Z,99023.39
2018-06-18T05:19:06.647Z,99023.08
2018-06-18T05:19:37.974Z,99023.44
2018-06-18T05:20:09.160Z,99021.77
2018-06-18T05:20:40.426Z,99020.05
2018-06-18T05:21:11.609Z,99016.37
2018-06-18T05:21:42.780Z,99020.31
2018-06-18T05:22:14.005Z,99020.67
2018-06-18T05:22:45.188Z,99020.70
2018-06-18T05:23:16.424Z,99022.05
2018-06-18T05:23:47.653Z,99023.01
2018-06-18T05:24:18.829Z,99022.21
2018-06-18T05:24:50.001Z,99023.15
2018-06-18T05:25:21.265Z,99020.79
2018-06-18T05:25:52.533Z,99030.52
2018-06-18T05:26:23.770Z,99025.98
2018-06-18T05:26:55.048Z,99023.83
2018-06-18T05:27:26.275Z,99032.22
2018-06-18T05:27:57.452Z,99026.88
2018-06-18T05:28:28.633Z,99024.83
2018-06-18T05:28:59.819Z,99033.52
2018-06-18T05:29:30.991Z,99034.38
2018-06-18T05:30:02.268Z,99032.83
2018-06-18T05:30:33.457Z,99034.85
2018-06-18T05:31:04.700Z,99034.77
2018-06-18T05:31:35.927Z,99035.01
2018-06-18T05:32:07.140Z,99030.58
2018-06-18T05:32:38.322Z,99028.49
2018-06-18T05:33:09.604Z,99027.52
2018-06-18T05:33:40.840Z,99029.97
2018-06-18T05:34:12.073Z,99032.29
2018-06-18T05:34:43.252Z,99030.66
2018-06-18T05:35:14.416Z,99025.95
2018-06-18T05:35:45.737Z,99034.00
2018-06-18T05:36:16.956Z,99031.62
2018-06-18T05:36:48.149Z,99032.83
2018-06-18T05:37:20.589Z,99033.71
2018-06-18T05:37:51.829Z,99033.58
2018-06-18T05:38:23.254Z,99028.05
2018-06-18T05:38:54.416Z,99027.52
2018-06-18T05:39:25.592Z,99021.46
2018-06-18T05:39:56.757Z,99024.98
2018-06-18T05:40:27.943Z,99023.80
2018-06-18T05:40:59.122Z,99025.09
2018-06-18T05:41:30.300Z,99023.52
2018-06-18T05:42:01.534Z,99025.30
2018-06-18T05:42:32.745Z,99030.95
2018-06-18T05:43:46.377Z,99032.11
2018-06-18T05:44:17.616Z,99030.84
2018-06-18T05:44:48.834Z,99033.42
2018-06-18T05:45:20.038Z,99036.97
2018-06-18T05:45:51.328Z,99036.05
2018-06-18T05:46:22.504Z,99029.16
2018-06-18T05:46:53.672Z,99033.54
2018-06-18T05:47:24.906Z,99037.53
2018-06-18T05:47:56.125Z,99028.92
2018-06-18T05:48:27.304Z,99030.32
2018-06-18T05:48:58.485Z,99036.73
2018-06-18T05:49:29.669Z,99032.66
2018-06-18T05:50:00.845Z,99031.42
2018-06-18T05:51:09.482Z,99032.21
2018-06-18T05:51:40.721Z,99033.36
2018-06-18T05:52:11.926Z,99031.67
2018-06-18T05:52:43.215Z,99030.34
2018-06-18T05:53:14.417Z,99031.98
2018-06-18T05:53:45.645Z,99034.98
2018-06-18T05:54:16.847Z,99032.81
2018-06-18T05:54:48.048Z,99030.34
2018-06-18T05:55:19.245Z,99029.00
2018-06-18T05:55:50.429Z,99029.70
2018-06-18T05:56:21.616Z,99030.75
2018-06-18T05:56:52.840Z,99031.42
2018-06-18T05:57:24.016Z,99028.27
2018-06-18T05:57:55.224Z,99031.48
2018-06-18T05:58:26.433Z,99032.84
2018-06-18T05:58:57.670Z,99032.84
2018-06-18T05:59:28.896Z,99032.69
2018-06-18T06:00:00.119Z,99035.55
2018-06-18T06:00:31.297Z,99040.42
2018-06-18T06:01:02.497Z,99039.88
2018-06-18T06:01:33.695Z,99037.69
2018-06-18T06:02:04.866Z,99035.14
2018-06-18T06:02:36.057Z,99037.72
2018-06-18T06:03:07.234Z,99041.34
2018-06-18T06:03:38.424Z,99043.00
2018-06-18T06:04:09.605Z,99048.63
2018-06-18T06:04:40.852Z,99045.25
2018-06-18T06:05:12.101Z,99047.26
2018-06-18T06:05:43.340Z,99050.56
2018-06-18T06:06:14.571Z,99049.55
2018-06-18T06:06:45.826Z,99051.31
2018-06-18T06:07:17.066Z,99051.20
2018-06-18T06:07:48.279Z,99047.61
2018-06-18T06:08:19.464Z,99044.94
2018-06-18T06:08:50.667Z,99040.31